Time;durP1;ratioP1;P1;durP2;ratioP2;P2;SDS_P1;SDS_P2;PMS_P1;PMS_P2;Temp;Humidity;BMP_temperature;BMP_pressure;BME280_temperature;BME280_humidity;BME280_pressure;Samples;Min_cycle;Max_cycle;Signal;HPM_P1;HPM_P2
2021/12/07 00:00:46;;;;;;;66.57;31.45;;;0.60;99.90;;;;;;5071016;28;20032;-66
2021/12/07 00:03:11;;;;;;;64.53;31.55;;;0.60;99.90;;;;;;5056167;28;20044;-66
2021/12/07 00:05:39;;;;;;;76.88;34.17;;;0.50;99.90;;;;;;5058469;28;20025;-66
2021/12/07 00:08:04;;;;;;;69.05;32.55;;;0.50;99.90;;;;;;5068442;28;20112;-66
2021/12/07 00:10:31;;;;;;;67.75;32.58;;;0.50;99.90;;;;;;5067340;28;20466;-66
2021/12/07 00:12:57;;;;;;;61.63;32.85;;;0.50;99.90;;;;;;5055818;28;20029;-66
2021/12/07 00:15:24;;;;;;;70.07;32.33;;;0.50;99.90;;;;;;5058541;28;20430;-66
2021/12/07 00:17:50;;;;;;;68.13;31.33;;;0.50;99.90;;;;;;5054639;28;20441;-66
2021/12/07 00:20:17;;;;;;;69.55;31.08;;;0.40;99.90;;;;;;5055422;28;20107;-66
2021/12/07 00:22:46;;;;;;;74.30;33.70;;;0.40;99.90;;;;;;5072276;28;20068;-66
2021/12/07 00:25:12;;;;;;;65.38;31.13;;;0.40;99.90;;;;;;5075840;28;20089;-66
2021/12/07 00:27:38;;;;;;;69.35;30.48;;;0.40;99.90;;;;;;5068488;28;20385;-66
2021/12/07 00:30:06;;;;;;;65.57;32.33;;;0.40;99.90;;;;;;5055606;28;20032;-66
2021/12/07 00:32:36;;;;;;;66.15;31.67;;;0.30;99.90;;;;;;5055916;28;20017;-66
2021/12/07 00:37:56;;;;;;;67.03;31.65;;;0.30;99.90;;;;;;5056165;28;20028;-66
2021/12/07 00:40:24;;;;;;;69.40;31.77;;;0.30;99.90;;;;;;5054695;28;20025;-66
2021/12/07 00:42:50;;;;;;;73.05;33.78;;;0.20;99.90;;;;;;5054859;28;20029;-66
2021/12/07 00:45:19;;;;;;;67.50;32.42;;;0.20;99.90;;;;;;5071306;28;20032;-66
2021/12/07 00:47:46;;;;;;;71.80;31.50;;;0.20;99.90;;;;;;5075366;28;20023;-66
2021/12/07 00:50:13;;;;;;;68.45;32.85;;;0.20;99.90;;;;;;5065582;28;20028;-66
2021/12/07 00:52:38;;;;;;;63.75;29.85;;;0.10;99.90;;;;;;5075024;28;20056;-66
2021/12/07 00:55:11;;;;;;;71.78;34.17;;;0.10;99.90;;;;;;5075249;28;20081;-66
2021/12/07 00:57:37;;;;;;;71.13;36.47;;;0.20;99.90;;;;;;5075557;28;20029;-66
2021/12/07 01:00:08;;;;;;;77.80;35.97;;;0.10;99.90;;;;;;5074063;28;20392;-66
2021/12/07 01:02:33;;;;;;;67.75;31.75;;;0.10;99.90;;;;;;5053861;28;20040;-66
2021/12/07 01:05:08;;;;;;;68.05;33.75;;;0.10;99.90;;;;;;5055199;28;20032;-66
2021/12/07 01:07:54;;;;;;;74.18;33.28;;;0.10;99.90;;;;;;5055216;28;20017;-66
2021/12/07 01:26:45;;;;;;;78.60;34.33;;;0.00;99.90;;;;;;5055264;28;20156;-66
2021/12/07 01:29:11;;;;;;;71.05;33.90;;;0.00;99.90;;;;;;5054704;28;20029;-66
2021/12/07 01:31:53;;;;;;;75.40;34.00;;;0.00;99.90;;;;;;5054852;28;20487;-66
2021/12/07 02:00:54;;;;;;;67.35;32.88;;;0.10;99.90;;;;;;5054345;28;20020;-66
2021/12/07 02:03:20;;;;;;;72.68;34.80;;;0.10;99.90;;;;;;5054031;28;20086;-66
2021/12/07 02:05:47;;;;;;;70.38;34.38;;;0.10;99.90;;;;;;5053923;28;20067;-66
2021/12/07 02:08:13;;;;;;;82.00;36.45;;;0.10;99.90;;;;;;5053875;28;20017;-66
2021/12/07 02:10:38;;;;;;;79.95;34.70;;;0.10;99.90;;;;;;5053126;28;20028;-66
2021/12/07 02:13:18;;;;;;;72.50;34.35;;;0.10;99.90;;;;;;5053777;28;20507;-66
2021/12/07 02:15:44;;;;;;;69.32;34.78;;;0.10;99.90;;;;;;5053876;28;20100;-66
2021/12/07 02:18:09;;;;;;;72.35;35.33;;;0.10;99.90;;;;;;5053560;28;20532;-66
2021/12/07 02:20:35;;;;;;;72.47;34.08;;;0.10;99.90;;;;;;5053165;28;20017;-66
2021/12/07 02:23:00;;;;;;;74.72;36.22;;;0.10;99.90;;;;;;5054101;28;20017;-66
2021/12/07 02:25:28;;;;;;;77.80;36.78;;;0.10;99.90;;;;;;5053653;28;20031;-66
2021/12/07 02:27:54;;;;;;;80.57;37.10;;;0.10;99.90;;;;;;5053381;28;20025;-66
2021/12/07 02:30:23;;;;;;;78.47;36.80;;;0.10;99.90;;;;;;5053403;28;20082;-66
2021/12/07 02:32:52;;;;;;;84.32;35.72;;;0.00;99.90;;;;;;5052895;28;20075;-66
2021/12/07 02:35:24;;;;;;;82.18;37.97;;;0.00;99.90;;;;;;5052174;28;20067;-66
2021/12/07 02:37:51;;;;;;;82.35;36.38;;;0.00;99.90;;;;;;5053361;28;20384;-66
2021/12/07 02:40:17;;;;;;;82.18;36.92;;;0.10;99.90;;;;;;5053303;28;20036;-66
2021/12/07 02:42:43;;;;;;;84.63;37.95;;;0.10;99.90;;;;;;5052728;28;20475;-66
2021/12/07 02:45:09;;;;;;;85.40;37.22;;;0.10;99.90;;;;;;5053217;28;20051;-66
2021/12/07 02:47:36;;;;;;;71.57;34.33;;;0.10;99.90;;;;;;5053375;28;20052;-66
2021/12/07 02:50:03;;;;;;;81.50;38.08;;;0.10;99.90;;;;;;5051889;28;20047;-66
2021/12/07 02:52:28;;;;;;;76.65;38.30;;;0.10;99.90;;;;;;5053222;28;20033;-66
2021/12/07 02:54:54;;;;;;;84.80;36.42;;;0.10;99.90;;;;;;5052923;28;20170;-66
2021/12/07 02:57:21;;;;;;;87.70;38.08;;;0.10;99.90;;;;;;5053134;28;20025;-66
2021/12/07 03:00:04;;;;;;;78.97;36.70;;;0.10;99.90;;;;;;5053115;28;20503;-66
2021/12/07 03:02:34;;;;;;;84.30;37.20;;;0.10;99.90;;;;;;5052638;28;20057;-66
2021/12/07 03:05:13;;;;;;;84.22;37.95;;;0.10;99.90;;;;;;5053007;28;20021;-66
2021/12/07 03:26:40;;;;;;;83.78;38.17;;;0.10;99.90;;;;;;5059373;28;20028;-66
2021/12/07 03:29:05;;;;;;;82.85;37.97;;;0.10;99.90;;;;;;5070222;28;20029;-66
2021/12/07 03:31:31;;;;;;;88.97;39.10;;;0.10;99.90;;;;;;5076931;28;20024;-66
2021/12/07 03:33:59;;;;;;;82.78;38.35;;;0.10;99.90;;;;;;5076323;28;20067;-66
2021/12/07 03:36:26;;;;;;;75.32;37.15;;;0.20;99.90;;;;;;5058928;28;20502;-66
2021/12/07 03:38:52;;;;;;;78.18;38.97;;;0.10;99.90;;;;;;5056918;28;20039;-66
2021/12/07 03:41:19;;;;;;;91.00;40.17;;;0.10;99.90;;;;;;5056136;28;20025;-66
2021/12/07 03:43:45;;;;;;;86.45;37.80;;;0.10;99.90;;;;;;5056535;28;20033;-66
2021/12/07 03:46:11;;;;;;;83.28;39.40;;;0.20;99.90;;;;;;5056834;28;20060;-66
2021/12/07 03:48:37;;;;;;;79.07;38.90;;;0.10;99.90;;;;;;5056503;28;20064;-66
2021/12/07 03:51:04;;;;;;;84.28;38.95;;;0.20;99.90;;;;;;5056770;28;20042;-65
2021/12/07 03:53:30;;;;;;;85.70;37.70;;;0.20;99.90;;;;;;5055899;28;20108;-66
2021/12/07 03:55:57;;;;;;;81.97;38.72;;;0.20;99.90;;;;;;5056447;28;20056;-66
2021/12/07 03:58:23;;;;;;;85.70;38.67;;;0.20;99.90;;;;;;5071200;28;20051;-66
2021/12/07 04:00:49;;;;;;;89.82;40.00;;;0.20;99.90;;;;;;5076579;28;20031;-66
2021/12/07 04:03:17;;;;;;;78.65;38.00;;;0.20;99.90;;;;;;5066578;28;20055;-66
2021/12/07 04:05:45;;;;;;;84.03;38.35;;;0.20;99.90;;;;;;5055724;28;20061;-66
2021/12/07 04:08:21;;;;;;;77.70;38.25;;;0.20;99.90;;;;;;5056377;28;20365;-65
2021/12/07 04:10:47;;;;;;;80.60;38.45;;;0.20;99.90;;;;;;5068409;28;20021;-66
2021/12/07 04:13:13;;;;;;;84.18;39.15;;;0.20;99.90;;;;;;5076631;28;20021;-66
2021/12/07 04:15:39;;;;;;;87.30;40.58;;;0.10;99.90;;;;;;5076046;28;20357;-66
2021/12/07 04:18:05;;;;;;;79.72;38.45;;;0.10;99.90;;;;;;5076172;28;20041;-66
2021/12/07 04:20:31;;;;;;;79.57;36.75;;;0.20;99.90;;;;;;5075349;28;20028;-66
2021/12/07 04:22:57;;;;;;;86.78;38.85;;;0.20;99.90;;;;;;5075794;28;20073;-65
2021/12/07 04:25:23;;;;;;;78.18;36.83;;;0.10;99.90;;;;;;5075872;28;20056;-65
2021/12/07 04:27:51;;;;;;;91.45;40.13;;;0.10;99.90;;;;;;5075780;28;20031;-66
2021/12/07 04:30:23;;;;;;;89.82;40.28;;;0.10;99.90;;;;;;5075148;28;20028;-66
2021/12/07 04:32:49;;;;;;;91.07;40.25;;;0.10;99.90;;;;;;5075275;28;20442;-65
2021/12/07 04:35:15;;;;;;;89.85;40.00;;;0.10;99.90;;;;;;5075522;28;20066;-66
2021/12/07 04:37:41;;;;;;;83.22;38.83;;;0.10;99.90;;;;;;5075580;28;20020;-65
2021/12/07 04:40:11;;;;;;;84.18;39.20;;;0.10;99.90;;;;;;5075038;28;20033;-65
2021/12/07 04:42:37;;;;;;;89.65;40.97;;;0.10;99.90;;;;;;5075459;28;20040;-66
2021/12/07 04:45:07;;;;;;;93.43;40.97;;;0.10;99.90;;;;;;5075726;28;20032;-66
2021/12/07 04:47:59;;;;;;;87.47;39.65;;;0.10;99.90;;;;;;5075458;28;20391;-66
2021/12/07 04:50:40;;;;;;;81.68;38.45;;;0.10;99.90;;;;;;5075637;28;20020;-65
2021/12/07 04:58:57;;;;;;;82.93;37.92;;;0.20;99.90;;;;;;5020982;28;20108;-65
2021/12/07 05:01:25;;;;;;;90.70;39.92;;;0.30;99.90;;;;;;5075535;28;20476;-66
2021/12/07 05:03:53;;;;;;;82.88;37.70;;;0.30;99.90;;;;;;5075087;28;20078;-66
2021/12/07 05:06:22;;;;;;;85.03;37.83;;;0.30;99.90;;;;;;5075107;28;20103;-66
2021/12/07 05:08:55;;;;;;;81.18;39.15;;;0.30;99.90;;;;;;5074493;28;20016;-66
2021/12/07 05:14:14;;;;;;;88.13;38.92;;;0.40;99.90;;;;;;5075269;28;20093;-66
2021/12/07 05:16:56;;;;;;;82.32;36.00;;;0.40;99.90;;;;;;5074695;28;20032;-66
2021/12/07 05:25:23;;;;;;;80.47;36.03;;;0.40;99.90;;;;;;5074955;28;20135;-66
2021/12/07 05:38:37;;;;;;;89.68;38.30;;;0.40;99.90;;;;;;5074159;28;20441;-66
2021/12/07 05:41:06;;;;;;;82.38;37.25;;;0.40;99.90;;;;;;5074382;28;20017;-66
2021/12/07 05:43:32;;;;;;;80.72;38.17;;;0.40;99.90;;;;;;5073805;28;20017;-66
2021/12/07 05:45:57;;;;;;;71.85;35.58;;;0.50;99.90;;;;;;5074243;28;20205;-66
2021/12/07 05:48:23;;;;;;;89.25;39.78;;;0.50;99.90;;;;;;5074238;28;20480;-66
2021/12/07 05:50:48;;;;;;;87.03;39.45;;;0.50;99.90;;;;;;5073614;28;20369;-66
2021/12/07 05:53:14;;;;;;;87.43;38.53;;;0.50;99.90;;;;;;5074167;28;20025;-66
2021/12/07 05:55:40;;;;;;;82.63;38.88;;;0.50;99.90;;;;;;5074107;28;20508;-66
2021/12/07 05:58:09;;;;;;;83.38;38.88;;;0.50;99.90;;;;;;5074220;28;20025;-66
2021/12/07 06:00:37;;;;;;;89.63;40.22;;;0.50;99.90;;;;;;5073477;28;20035;-66
2021/12/07 06:03:08;;;;;;;85.40;39.13;;;0.50;99.90;;;;;;5074174;28;20104;-66
2021/12/07 06:05:35;;;;;;;84.85;37.58;;;0.50;99.90;;;;;;5074532;28;20020;-66
2021/12/07 06:08:02;;;;;;;79.95;36.88;;;0.50;99.90;;;;;;5074077;28;20042;-66
2021/12/07 06:10:28;;;;;;;82.45;37.05;;;0.60;99.90;;;;;;5073280;28;20048;-66
2021/12/07 06:12:54;;;;;;;89.85;41.13;;;0.60;99.90;;;;;;5074052;28;20428;-66
2021/12/07 06:15:22;;;;;;;88.55;39.78;;;0.50;99.90;;;;;;5073715;28;20029;-66
2021/12/07 06:17:49;;;;;;;81.43;39.85;;;0.60;99.90;;;;;;5074196;28;20021;-65
2021/12/07 06:20:15;;;;;;;82.82;38.10;;;0.50;99.90;;;;;;5073123;28;20025;-66
2021/12/07 06:22:41;;;;;;;80.88;39.00;;;0.50;99.90;;;;;;5074456;28;20364;-66
2021/12/07 06:25:07;;;;;;;81.60;37.88;;;0.50;99.90;;;;;;5073743;28;20031;-66
2021/12/07 06:27:33;;;;;;;80.10;39.35;;;0.50;99.90;;;;;;5073708;28;20032;-65
2021/12/07 06:30:00;;;;;;;85.55;38.45;;;0.50;99.90;;;;;;5073315;28;20047;-66
2021/12/07 06:32:26;;;;;;;84.90;40.08;;;0.60;99.90;;;;;;5073607;28;20125;-66
2021/12/07 06:34:52;;;;;;;84.15;38.30;;;0.60;99.90;;;;;;5072960;28;20059;-66
2021/12/07 06:37:18;;;;;;;83.38;38.88;;;0.50;99.90;;;;;;5073404;28;20085;-66
2021/12/07 06:39:44;;;;;;;81.35;38.17;;;0.50;99.90;;;;;;5073538;28;20028;-66
2021/12/07 06:42:11;;;;;;;96.97;41.90;;;0.50;99.90;;;;;;5073292;28;20476;-66
2021/12/07 06:44:36;;;;;;;80.07;39.58;;;0.50;99.90;;;;;;5073504;28;20056;-66
2021/12/07 06:47:03;;;;;;;88.35;39.88;;;0.50;99.90;;;;;;5073270;28;20391;-65
2021/12/07 06:49:29;;;;;;;79.88;39.25;;;0.50;99.90;;;;;;5072769;28;20387;-66
2021/12/07 06:51:55;;;;;;;85.50;40.90;;;0.50;99.90;;;;;;5073388;28;20025;-66
2021/12/07 06:54:20;;;;;;;81.63;39.42;;;0.50;99.90;;;;;;5073216;28;20033;-66
2021/12/07 06:56:47;;;;;;;88.13;40.28;;;0.40;99.90;;;;;;5073080;28;20021;-65
2021/12/07 06:59:12;;;;;;;90.65;40.47;;;0.40;99.90;;;;;;5073070;28;20407;-66
2021/12/07 07:01:38;;;;;;;91.40;40.55;;;0.40;99.90;;;;;;5072658;28;20032;-66
2021/12/07 07:04:04;;;;;;;86.63;40.08;;;0.40;99.90;;;;;;5072578;28;20033;-66
2021/12/07 07:06:30;;;;;;;84.93;41.47;;;0.40;99.90;;;;;;5072906;28;20021;-66
2021/12/07 07:08:55;;;;;;;90.60;41.42;;;0.40;99.90;;;;;;5073023;28;20047;-66
2021/12/07 07:11:22;;;;;;;87.22;40.67;;;0.40;99.90;;;;;;5073584;28;20025;-66
2021/12/07 07:13:48;;;;;;;89.18;40.20;;;0.50;99.90;;;;;;5073051;28;20320;-65
2021/12/07 07:16:14;;;;;;;91.07;39.60;;;0.40;99.90;;;;;;5062815;28;20484;-66
2021/12/07 07:18:40;;;;;;;89.30;40.75;;;0.40;99.90;;;;;;5052909;28;20037;-66
2021/12/07 07:21:06;;;;;;;88.90;39.13;;;0.40;99.90;;;;;;5054831;28;20039;-66
2021/12/07 07:23:32;;;;;;;84.80;41.50;;;0.40;99.90;;;;;;5072842;28;20047;-66
2021/12/07 07:25:57;;;;;;;86.75;40.90;;;0.40;99.90;;;;;;5072954;28;20095;-66
2021/12/07 07:28:28;;;;;;;93.53;40.97;;;0.30;99.90;;;;;;5073184;28;20495;-66
2021/12/07 07:30:54;;;;;;;97.05;42.95;;;0.40;99.90;;;;;;5072498;28;20025;-66
2021/12/07 07:33:20;;;;;;;88.93;41.50;;;0.40;99.90;;;;;;5058239;28;20029;-66
2021/12/07 07:35:46;;;;;;;83.68;38.72;;;0.30;99.90;;;;;;5051539;28;20028;-66
2021/12/07 07:38:12;;;;;;;88.40;41.45;;;0.30;99.90;;;;;;5052952;28;20033;-66
2021/12/07 07:40:38;;;;;;;90.47;41.65;;;0.30;99.90;;;;;;5052964;28;20111;-66
2021/12/07 07:43:03;;;;;;;95.38;42.60;;;0.30;99.90;;;;;;5052579;28;20025;-65
2021/12/07 07:45:29;;;;;;;100.15;40.58;;;0.30;99.90;;;;;;5052139;28;20017;-66
2021/12/07 07:47:55;;;;;;;88.35;42.88;;;0.30;99.90;;;;;;5052610;28;20104;-66
2021/12/07 07:50:21;;;;;;;87.95;40.90;;;0.30;99.90;;;;;;5052896;28;20020;-66
2021/12/07 07:52:47;;;;;;;95.20;41.60;;;0.30;99.90;;;;;;5052906;28;20021;-66
2021/12/07 07:55:13;;;;;;;85.60;40.33;;;0.30;99.90;;;;;;5052874;28;20033;-66
2021/12/07 07:57:39;;;;;;;93.70;41.83;;;0.40;99.90;;;;;;5052259;28;20029;-66
2021/12/07 08:00:08;;;;;;;86.72;40.47;;;0.40;99.90;;;;;;5052706;28;20108;-65
2021/12/07 08:02:34;;;;;;;98.88;42.72;;;0.40;99.90;;;;;;5052473;28;20554;-66
2021/12/07 08:05:00;;;;;;;98.80;43.67;;;0.50;99.90;;;;;;5052473;28;20033;-65
2021/12/07 08:07:25;;;;;;;88.75;42.80;;;0.50;99.90;;;;;;5067015;28;20036;-66
2021/12/07 08:09:51;;;;;;;89.60;43.00;;;0.60;99.90;;;;;;5076655;28;20097;-65
2021/12/07 08:12:16;;;;;;;94.45;42.83;;;0.60;99.90;;;;;;5065232;28;20361;-66
2021/12/07 08:14:42;;;;;;;85.07;39.95;;;0.60;99.90;;;;;;5055579;28;20476;-66
2021/12/07 08:17:08;;;;;;;81.10;38.75;;;0.60;99.90;;;;;;5075410;28;20056;-65
2021/12/07 08:19:33;;;;;;;98.43;42.90;;;0.70;99.90;;;;;;5076460;28;20032;-65
2021/12/07 08:21:59;;;;;;;84.40;39.08;;;0.70;99.90;;;;;;5075903;28;20392;-66
2021/12/07 08:24:24;;;;;;;89.43;39.67;;;0.80;99.90;;;;;;5074695;28;20028;-66
2021/12/07 08:26:50;;;;;;;89.68;41.22;;;0.80;99.90;;;;;;5056011;28;20135;-66
2021/12/07 08:29:16;;;;;;;98.25;42.90;;;0.80;99.90;;;;;;5055688;28;20040;-66
2021/12/07 08:31:43;;;;;;;88.03;39.25;;;0.80;99.90;;;;;;5055818;28;20056;-66
2021/12/07 08:34:08;;;;;;;83.93;39.28;;;0.80;99.90;;;;;;5055079;28;20040;-66
2021/12/07 08:36:35;;;;;;;92.45;42.22;;;0.80;99.90;;;;;;5057776;28;20029;-66
2021/12/07 08:39:00;;;;;;;87.07;41.20;;;0.80;99.90;;;;;;5055838;28;20025;-65
2021/12/07 08:41:26;;;;;;;89.68;41.88;;;0.90;99.90;;;;;;5061544;28;20031;-65
2021/12/07 08:43:52;;;;;;;84.43;39.28;;;0.90;99.90;;;;;;5074927;28;20035;-66
2021/12/07 08:46:18;;;;;;;88.25;40.85;;;0.90;99.90;;;;;;5075490;28;20206;-65
2021/12/07 08:48:43;;;;;;;88.57;39.55;;;0.90;99.90;;;;;;5075414;28;20028;-65
2021/12/07 08:51:11;;;;;;;78.22;39.42;;;0.90;99.90;;;;;;5069078;28;20024;-66
2021/12/07 08:53:44;;;;;;;82.60;38.28;;;1.00;99.90;;;;;;5055354;28;20079;-66
2021/12/07 09:01:38;;;;;;;85.32;39.13;;;1.00;99.90;;;;;;5057560;28;20047;-66
2021/12/07 09:04:04;;;;;;;79.07;37.42;;;1.00;99.90;;;;;;5055366;28;20025;-66
2021/12/07 09:06:30;;;;;;;80.10;39.22;;;1.00;99.90;;;;;;5055433;28;20014;-66
2021/12/07 09:08:56;;;;;;;82.95;40.28;;;1.00;99.90;;;;;;5070976;28;20071;-66
2021/12/07 09:11:22;;;;;;;94.60;41.10;;;1.00;99.90;;;;;;5075089;28;20021;-66
2021/12/07 09:13:48;;;;;;;76.18;38.00;;;1.10;99.90;;;;;;5074627;28;20028;-66
2021/12/07 09:16:17;;;;;;;77.72;39.83;;;1.00;99.90;;;;;;5062263;28;20021;-66
2021/12/07 09:18:44;;;;;;;88.10;38.53;;;1.10;99.90;;;;;;5053933;28;20017;-66
2021/12/07 09:21:10;;;;;;;83.70;38.70;;;1.00;99.90;;;;;;5054834;28;20060;-66
2021/12/07 09:23:36;;;;;;;92.32;41.63;;;1.00;99.90;;;;;;5054760;28;20028;-66
2021/12/07 09:26:04;;;;;;;87.53;40.65;;;1.00;99.90;;;;;;5054186;28;20104;-67
2021/12/07 09:28:29;;;;;;;94.88;40.35;;;1.10;99.90;;;;;;5054533;28;20017;-66
2021/12/07 09:30:56;;;;;;;85.03;36.97;;;1.00;99.90;;;;;;5055282;28;20029;-66
2021/12/07 09:33:27;;;;;;;80.25;37.88;;;1.10;99.90;;;;;;5055121;28;20037;-66
2021/12/07 09:35:55;;;;;;;96.38;42.45;;;1.10;99.90;;;;;;5054462;28;20020;-66
2021/12/07 09:38:22;;;;;;;82.35;37.58;;;1.10;99.90;;;;;;5054442;28;20401;-66
2021/12/07 09:40:49;;;;;;;82.38;38.95;;;1.10;99.90;;;;;;5054459;28;20021;-66
2021/12/07 09:43:15;;;;;;;95.72;40.65;;;1.10;99.90;;;;;;5054358;28;20021;-66
2021/12/07 09:45:43;;;;;;;91.40;40.05;;;1.10;99.90;;;;;;5054363;28;20078;-66
2021/12/07 09:48:10;;;;;;;89.45;39.95;;;1.10;99.90;;;;;;5053708;28;20128;-66
2021/12/07 09:50:39;;;;;;;79.03;37.35;;;1.10;99.90;;;;;;5054183;28;20083;-66
2021/12/07 09:53:09;;;;;;;86.30;36.83;;;1.20;99.90;;;;;;5054222;28;20077;-66
2021/12/07 09:55:37;;;;;;;89.25;40.85;;;1.20;99.90;;;;;;5053841;28;20388;-66
2021/12/07 09:58:03;;;;;;;80.90;39.15;;;1.20;99.90;;;;;;5054284;28;20066;-66
2021/12/07 10:00:29;;;;;;;89.57;40.80;;;1.20;99.90;;;;;;5053623;28;20107;-66
2021/12/07 10:02:55;;;;;;;86.10;40.63;;;1.20;99.90;;;;;;5054318;28;20506;-66
2021/12/07 10:05:24;;;;;;;96.88;41.92;;;1.20;99.90;;;;;;5054170;28;20068;-66
2021/12/07 10:07:51;;;;;;;86.97;40.47;;;1.30;99.90;;;;;;5056097;28;20048;-66
2021/12/07 10:10:26;;;;;;;92.18;42.40;;;1.30;99.90;;;;;;5059915;28;20407;-66
2021/12/07 10:12:51;;;;;;;85.97;41.22;;;1.30;99.90;;;;;;5059205;28;20032;-67
2021/12/07 10:15:18;;;;;;;87.57;40.45;;;1.30;99.90;;;;;;5055867;28;20028;-66
2021/12/07 10:17:59;;;;;;;89.38;40.53;;;1.30;99.90;;;;;;5068308;28;20024;-66
2021/12/07 10:20:39;;;;;;;91.70;40.90;;;1.40;99.90;;;;;;5070816;28;20025;-68
2021/12/07 10:23:28;;;;;;;79.10;37.50;;;1.40;99.90;;;;;;5059549;28;20528;-66
2021/12/07 10:26:52;;;;;;;88.55;40.83;;;1.40;99.90;;;;;;5061822;28;20032;-66
2021/12/07 10:29:20;;;;;;;82.75;39.33;;;1.50;99.90;;;;;;5058524;28;20044;-66
2021/12/07 10:31:53;;;;;;;90.88;39.75;;;1.40;99.90;;;;;;5061404;28;20040;-67
2021/12/07 10:34:23;;;;;;;97.40;42.28;;;1.40;99.90;;;;;;5066822;28;20353;-66
2021/12/07 10:36:56;;;;;;;87.00;39.78;;;1.40;99.90;;;;;;5057229;28;20035;-68
2021/12/07 10:39:34;;;;;;;84.10;39.25;;;1.40;99.90;;;;;;5061465;28;20029;-68
2021/12/07 10:42:15;;;;;;;96.18;41.13;;;1.40;99.90;;;;;;5054675;28;20029;-65
2021/12/07 10:44:41;;;;;;;91.80;41.05;;;1.40;99.90;;;;;;5066917;28;20025;-70
2021/12/07 10:47:15;;;;;;;85.43;39.38;;;1.40;99.90;;;;;;5062460;28;20495;-70
2021/12/07 10:49:43;;;;;;;83.20;39.30;;;1.40;99.90;;;;;;5060747;28;20029;-72
2021/12/07 10:52:30;;;;;;;89.68;41.15;;;1.40;99.90;;;;;;5057139;28;20025;-70
2021/12/07 10:55:18;;;;;;;82.13;38.75;;;1.40;99.90;;;;;;5064113;28;20067;-70
2021/12/07 10:57:45;;;;;;;90.53;42.72;;;1.40;99.90;;;;;;5070660;28;20032;-70
2021/12/07 11:00:17;;;;;;;90.30;40.03;;;1.50;99.90;;;;;;5067530;28;20427;-70
2021/12/07 11:03:05;;;;;;;87.88;40.50;;;1.50;99.90;;;;;;5065546;28;20383;-71
2021/12/07 11:05:41;;;;;;;88.72;40.85;;;1.50;99.90;;;;;;5061954;28;20040;-70
2021/12/07 11:08:09;;;;;;;91.50;43.50;;;1.50;99.90;;;;;;5063850;28;20048;-68
2021/12/07 11:10:39;;;;;;;88.25;40.05;;;1.40;99.90;;;;;;5063689;28;20472;-67
2021/12/07 11:13:12;;;;;;;94.88;40.75;;;1.40;99.90;;;;;;5055237;28;20029;-67
2021/12/07 11:15:54;;;;;;;85.90;40.70;;;1.40;99.90;;;;;;5061315;28;20025;-67
2021/12/07 11:18:28;;;;;;;100.80;43.53;;;1.40;99.90;;;;;;5052960;28;20025;-67
2021/12/07 11:20:59;;;;;;;98.72;42.70;;;1.40;99.90;;;;;;5053378;28;20108;-67
2021/12/07 11:23:32;;;;;;;91.80;43.08;;;1.40;99.90;;;;;;5052850;28;20473;-66
2021/12/07 11:30:57;;;;;;;95.13;43.38;;;1.30;99.90;;;;;;5030962;28;20072;-72
2021/12/07 11:33:23;;;;;;;93.30;41.33;;;1.20;99.90;;;;;;5032553;28;20515;-72
2021/12/07 11:35:49;;;;;;;102.13;42.47;;;1.20;99.90;;;;;;5032827;28;20092;-72
2021/12/07 11:38:28;;;;;;;102.65;42.75;;;1.20;99.90;;;;;;5032784;28;20472;-72
2021/12/07 11:41:18;;;;;;;106.63;44.97;;;1.20;99.90;;;;;;5012689;28;20072;-73
2021/12/07 11:44:10;;;;;;;100.82;44.28;;;1.10;99.90;;;;;;5016165;28;20026;-72
2021/12/07 11:46:45;;;;;;;103.15;45.47;;;1.10;99.90;;;;;;5014069;28;20065;-72
2021/12/07 11:49:20;;;;;;;98.80;45.10;;;1.10;99.90;;;;;;5016692;28;20030;-73
2021/12/07 11:51:48;;;;;;;103.43;45.28;;;1.10;99.90;;;;;;5016487;28;20029;-73
2021/12/07 11:54:16;;;;;;;126.72;46.83;;;1.10;99.90;;;;;;5016055;28;20046;-73
2021/12/07 11:56:44;;;;;;;99.32;44.15;;;1.10;99.90;;;;;;5016794;28;20037;-73
2021/12/07 11:59:11;;;;;;;99.18;44.53;;;1.10;99.90;;;;;;5015963;28;20034;-73
2021/12/07 12:01:39;;;;;;;107.30;47.05;;;1.10;99.90;;;;;;5016830;28;20034;-73
2021/12/07 12:04:05;;;;;;;107.25;44.83;;;1.10;99.90;;;;;;5016344;28;20025;-73
2021/12/07 12:06:32;;;;;;;113.57;46.40;;;1.10;99.90;;;;;;5016578;28;20036;-73
2021/12/07 12:08:58;;;;;;;112.38;46.22;;;1.00;99.90;;;;;;5016700;28;20401;-73
2021/12/07 12:11:45;;;;;;;107.82;45.53;;;1.00;99.90;;;;;;5016331;28;20060;-73
2021/12/07 12:14:29;;;;;;;116.53;47.75;;;1.10;99.90;;;;;;5015902;28;20033;-73
2021/12/07 12:17:13;;;;;;;109.93;46.33;;;1.10;99.90;;;;;;5016956;28;20067;-77
2021/12/07 12:20:05;;;;;;;107.53;46.00;;;1.10;99.90;;;;;;5018188;28;20076;-77
2021/12/07 12:22:37;;;;;;;111.05;45.72;;;1.10;99.90;;;;;;5019118;28;20033;-77
2021/12/07 12:25:08;;;;;;;108.00;44.17;;;1.20;99.90;;;;;;5022386;28;20493;-77
2021/12/07 12:27:36;;;;;;;109.95;46.13;;;1.30;99.90;;;;;;5000001;28;20033;-77
2021/12/07 12:30:15;;;;;;;111.57;47.22;;;1.40;99.90;;;;;;5016483;28;20084;-78
2021/12/07 12:32:46;;;;;;;105.38;44.55;;;1.50;99.90;;;;;;5016435;28;20029;-77
2021/12/07 12:35:14;;;;;;;108.20;46.13;;;1.50;99.90;;;;;;5015959;28;20034;-72
2021/12/07 12:37:47;;;;;;;109.43;44.70;;;1.50;99.90;;;;;;5015491;28;20029;-75
2021/12/07 12:40:29;;;;;;;104.82;46.35;;;1.50;99.90;;;;;;5016082;28;20603;-74
2021/12/07 12:42:57;;;;;;;96.65;45.25;;;1.50;99.90;;;;;;5015997;28;20073;-73
2021/12/07 12:45:28;;;;;;;103.25;42.97;;;1.40;99.90;;;;;;5015810;28;20026;-73
2021/12/07 12:47:54;;;;;;;100.20;44.28;;;1.30;99.90;;;;;;4981932;28;20473;-74
2021/12/07 12:50:22;;;;;;;102.85;43.95;;;1.30;99.90;;;;;;4980647;28;20058;-73
2021/12/07 12:52:58;;;;;;;99.53;44.45;;;1.30;99.90;;;;;;4996493;28;20014;-73
2021/12/07 12:55:38;;;;;;;110.68;47.30;;;1.30;99.90;;;;;;4993431;28;20388;-71
2021/12/07 12:58:34;;;;;;;107.20;44.67;;;1.30;99.90;;;;;;5015960;28;20022;-72
2021/12/07 13:01:11;;;;;;;111.60;45.70;;;1.30;99.90;;;;;;4988583;28;20125;-72
2021/12/07 13:03:43;;;;;;;99.40;44.00;;;1.30;99.90;;;;;;5015421;28;20029;-72
2021/12/07 13:06:15;;;;;;;106.43;46.72;;;1.30;99.90;;;;;;4983849;28;20105;-72
2021/12/07 13:09:01;;;;;;;110.30;47.53;;;1.20;99.90;;;;;;4978802;28;20441;-72
2021/12/07 13:11:49;;;;;;;100.70;46.65;;;1.20;99.90;;;;;;5010541;28;20052;-71
2021/12/07 13:14:24;;;;;;;102.68;45.50;;;1.20;99.90;;;;;;5015661;28;20049;-72
2021/12/07 13:16:52;;;;;;;108.47;44.20;;;1.20;99.90;;;;;;5015244;28;20025;-72
2021/12/07 13:19:19;;;;;;;121.15;49.03;;;1.20;99.90;;;;;;5014720;28;20036;-72
2021/12/07 13:21:46;;;;;;;110.78;46.75;;;1.20;99.90;;;;;;5015414;28;20102;-71
2021/12/07 13:24:16;;;;;;;106.50;45.08;;;1.20;99.90;;;;;;4997521;28;20026;-71
2021/12/07 13:26:49;;;;;;;124.20;51.53;;;1.20;99.90;;;;;;5015340;28;20032;-71
2021/12/07 13:29:21;;;;;;;125.25;48.30;;;1.20;99.90;;;;;;4996755;28;20505;-72
2021/12/07 13:31:51;;;;;;;123.13;50.10;;;1.20;99.90;;;;;;5014946;28;20042;-72
2021/12/07 13:34:24;;;;;;;123.13;48.85;;;1.20;99.90;;;;;;5015533;28;20018;-72
2021/12/07 13:36:57;;;;;;;122.43;50.80;;;1.20;99.90;;;;;;5015220;28;20064;-71
2021/12/07 13:39:23;;;;;;;131.00;51.83;;;1.20;99.90;;;;;;5015422;28;20100;-71
2021/12/07 13:42:17;;;;;;;111.68;45.40;;;1.20;99.90;;;;;;5014445;28;20117;-71
2021/12/07 13:44:52;;;;;;;126.25;50.72;;;1.20;99.90;;;;;;5013691;28;20069;-71
2021/12/07 13:47:20;;;;;;;126.05;50.85;;;1.20;99.90;;;;;;5015015;28;20025;-71
2021/12/07 13:49:51;;;;;;;123.65;47.83;;;1.20;99.90;;;;;;4988239;28;20084;-71
2021/12/07 13:52:26;;;;;;;128.63;48.20;;;1.30;99.90;;;;;;4994538;28;20081;-71
2021/12/07 13:54:55;;;;;;;124.63;49.63;;;1.20;99.90;;;;;;4983481;28;20505;-72
2021/12/07 13:57:28;;;;;;;115.07;49.83;;;1.20;99.90;;;;;;5013226;28;20406;-71
2021/12/07 14:00:14;;;;;;;129.52;50.92;;;1.30;99.90;;;;;;5011703;28;20034;-71
2021/12/07 14:02:43;;;;;;;125.25;50.55;;;1.30;99.90;;;;;;5013248;28;20037;-71
2021/12/07 14:05:20;;;;;;;131.48;49.60;;;1.30;99.90;;;;;;5012388;28;20034;-72
2021/12/07 14:07:47;;;;;;;117.18;51.22;;;1.30;99.90;;;;;;5004133;28;20034;-73
2021/12/07 14:10:41;;;;;;;124.32;50.80;;;1.30;99.90;;;;;;5008984;28;20026;-73
2021/12/07 14:13:07;;;;;;;120.93;48.63;;;1.30;99.90;;;;;;5012697;28;20018;-75
2021/12/07 14:15:35;;;;;;;140.50;51.53;;;1.40;99.90;;;;;;5012011;28;20061;-74
2021/12/07 14:18:07;;;;;;;130.23;48.67;;;1.40;99.90;;;;;;5013184;28;20075;-75
2021/12/07 14:20:42;;;;;;;136.23;51.03;;;1.30;99.90;;;;;;4994204;28;20031;-75
2021/12/07 14:23:29;;;;;;;142.02;48.63;;;1.30;99.90;;;;;;5012633;28;20524;-76
2021/12/07 14:26:22;;;;;;;146.20;51.47;;;1.30;99.90;;;;;;5012073;28;20030;-75
2021/12/07 14:28:55;;;;;;;128.90;50.60;;;1.40;99.90;;;;;;4983566;28;20429;-77